Ashley, Ohio
Current Conditions -  °F | °C
As of 9:17 AM on Saturday 25 Oct 2014 (Local Time) from KDLZ Reporting Station
Overcast Overcast  
Wind Chill: 50°   Ceiling: 5000
Heat Index: 50°   Visibility: 7mi
Dew Point: 45°   Wind: 3mph
Humidity: 82%   Direction: 200°SSW
Pressure: 29.96"   Gusts: NA
Location:  40.41°N, 82.96°W
Report Text: KDLZ 251317Z AUTO 20003KT 7SM SCT046 OVC050 10/07 A2996 RMK AO2
Loading
Personal Weather Stations






























Interactive Weather Map
Tropical Storm Tracking
New forecast layout! Learn more

10-Day Weather Forecast

Advertisements
Track Severe Weather on mobile